Time;durP1;ratioP1;P1;durP2;ratioP2;P2;SDS_P1;SDS_P2;PMS_P1;PMS_P2;Temp;Humidity;BMP_temperature;BMP_pressure;BME280_temperature;BME280_humidity;BME280_pressure;Samples;Min_cycle;Max_cycle;Signal;HPM_P1;HPM_P2
2022/09/13 00:00:45;;;;;;;3.47;3.17;;;16.90;99.90;;;;;;5029930;28;20218;-45
2022/09/13 00:03:12;;;;;;;3.33;3.13;;;16.90;99.90;;;;;;5042096;28;20201;-44
2022/09/13 00:05:39;;;;;;;3.63;2.90;;;16.90;99.90;;;;;;5049377;28;20207;-48
2022/09/13 00:08:06;;;;;;;3.73;3.53;;;16.90;99.90;;;;;;5041029;28;20215;-48
2022/09/13 00:10:34;;;;;;;3.20;2.97;;;16.90;99.90;;;;;;5063905;28;20534;-44
2022/09/13 00:13:01;;;;;;;3.57;3.27;;;16.90;99.90;;;;;;5053715;28;20199;-44
2022/09/13 00:15:30;;;;;;;3.50;3.27;;;16.90;99.90;;;;;;5044335;28;20285;-46
2022/09/13 00:17:57;;;;;;;4.20;3.83;;;16.90;99.90;;;;;;5041378;28;20187;-48
2022/09/13 00:20:24;;;;;;;3.20;3.00;;;16.90;99.90;;;;;;5048531;28;20261;-45
2022/09/13 00:22:51;;;;;;;3.13;2.93;;;16.80;99.90;;;;;;5040762;28;20195;-44
2022/09/13 00:25:18;;;;;;;4.20;3.90;;;16.80;99.90;;;;;;5045209;28;20234;-44
2022/09/13 00:27:46;;;;;;;3.70;3.10;;;16.90;99.90;;;;;;5044061;28;20898;-46
2022/09/13 00:30:13;;;;;;;3.60;3.40;;;16.90;99.90;;;;;;5039192;28;21788;-48
2022/09/13 00:32:42;;;;;;;4.13;3.37;;;16.90;99.90;;;;;;5043037;28;20210;-44
2022/09/13 00:35:09;;;;;;;4.00;3.70;;;16.90;99.90;;;;;;5040115;28;20297;-45
2022/09/13 00:37:36;;;;;;;5.63;3.87;;;16.90;99.90;;;;;;5053815;28;20199;-44
2022/09/13 00:40:04;;;;;;;4.07;3.77;;;16.80;99.90;;;;;;5059590;28;20187;-46
2022/09/13 00:42:32;;;;;;;4.03;3.73;;;16.80;99.90;;;;;;5061942;28;20194;-43
2022/09/13 00:45:01;;;;;;;4.10;3.70;;;16.80;99.90;;;;;;5034672;28;20982;-46
2022/09/13 00:47:36;;;;;;;4.50;4.10;;;16.70;99.90;;;;;;5035381;28;20286;-47
2022/09/13 00:50:11;;;;;;;4.97;3.97;;;16.60;99.90;;;;;;5038561;28;20187;-47
2022/09/13 00:52:41;;;;;;;4.40;4.00;;;16.50;99.90;;;;;;5061257;28;20218;-47
2022/09/13 00:55:12;;;;;;;4.37;3.97;;;16.50;99.90;;;;;;5058101;28;20218;-48
2022/09/13 00:57:43;;;;;;;5.00;4.40;;;16.40;99.90;;;;;;5063310;28;20191;-48
2022/09/13 01:00:12;;;;;;;6.20;4.70;;;16.40;99.90;;;;;;5055304;28;20328;-44
2022/09/13 01:02:44;;;;;;;5.17;4.77;;;16.30;99.90;;;;;;5041628;28;20214;-45
2022/09/13 01:05:14;;;;;;;5.43;4.57;;;16.30;99.90;;;;;;5040250;28;20210;-47
2022/09/13 01:07:41;;;;;;;5.63;5.03;;;16.20;99.90;;;;;;5050537;28;20248;-48
2022/09/13 01:10:10;;;;;;;4.90;4.50;;;16.30;99.90;;;;;;5044139;28;20191;-44
2022/09/13 01:12:45;;;;;;;4.70;4.40;;;16.30;99.90;;;;;;5053349;28;20559;-44
2022/09/13 01:15:12;;;;;;;5.43;5.00;;;16.30;99.90;;;;;;5049123;28;20206;-47
2022/09/13 01:17:39;;;;;;;5.10;4.70;;;16.30;99.90;;;;;;5028801;28;20204;-46
2022/09/13 01:20:08;;;;;;;4.77;4.47;;;16.30;99.90;;;;;;5039153;28;20187;-44
2022/09/13 01:23:17;;;;;;;5.30;4.83;;;16.20;99.90;;;;;;5042690;28;20520;-46
2022/09/13 01:26:20;;;;;;;5.27;4.77;;;16.20;99.90;;;;;;5042893;28;20191;-44
2022/09/13 01:29:23;;;;;;;5.77;5.27;;;16.20;99.90;;;;;;5034480;28;20230;-44
2022/09/13 01:32:00;;;;;;;5.47;4.97;;;16.20;99.90;;;;;;5029469;28;20591;-48
2022/09/13 01:34:40;;;;;;;5.53;5.10;;;16.30;99.90;;;;;;5041034;28;20289;-47
2022/09/13 01:37:39;;;;;;;5.20;4.80;;;16.20;99.90;;;;;;5043466;28;20183;-44
2022/09/13 01:40:17;;;;;;;5.30;4.80;;;16.20;99.90;;;;;;5025904;28;20202;-45
2022/09/13 01:42:59;;;;;;;7.63;4.97;;;16.10;99.90;;;;;;5054674;28;20198;-46
2022/09/13 01:45:37;;;;;;;5.90;5.40;;;16.20;99.90;;;;;;5027780;28;20754;-44
2022/09/13 01:48:14;;;;;;;7.30;5.43;;;16.10;99.90;;;;;;5034725;28;20471;-46
2022/09/13 01:50:46;;;;;;;5.43;4.93;;;16.10;99.90;;;;;;5043541;28;20198;-49
2022/09/13 01:53:23;;;;;;;5.27;4.77;;;16.10;99.90;;;;;;5039665;28;20188;-45
2022/09/13 01:55:56;;;;;;;5.40;4.97;;;16.10;99.90;;;;;;5039207;28;20684;-45
2022/09/13 01:58:29;;;;;;;6.03;5.43;;;16.10;99.90;;;;;;5043206;28;20194;-45
2022/09/13 02:01:07;;;;;;;5.97;5.10;;;16.10;99.90;;;;;;5036593;28;20191;-47
2022/09/13 02:03:39;;;;;;;5.80;5.17;;;16.10;99.90;;;;;;5016683;28;20297;-47
2022/09/13 02:06:11;;;;;;;6.47;5.20;;;16.10;99.90;;;;;;5044021;28;20478;-48
2022/09/13 02:08:41;;;;;;;5.57;4.97;;;16.10;99.90;;;;;;5043013;28;20560;-46
2022/09/13 02:11:11;;;;;;;5.00;4.60;;;16.10;99.90;;;;;;5052549;28;20186;-45
2022/09/13 02:13:44;;;;;;;6.03;5.43;;;16.10;99.90;;;;;;5049475;28;20744;-44
2022/09/13 02:16:16;;;;;;;6.23;5.17;;;16.10;99.90;;;;;;5036045;28;20206;-44
2022/09/13 02:18:51;;;;;;;5.00;4.60;;;16.10;99.90;;;;;;5047106;28;20238;-51
2022/09/13 02:21:22;;;;;;;5.63;5.13;;;16.10;99.90;;;;;;5045669;28;20570;-44
2022/09/13 02:23:53;;;;;;;5.17;4.73;;;16.00;99.90;;;;;;5042894;28;20298;-47
2022/09/13 02:26:21;;;;;;;7.27;5.40;;;16.00;99.90;;;;;;5046856;28;20191;-44
2022/09/13 02:28:52;;;;;;;6.37;5.83;;;16.00;99.90;;;;;;5044119;28;20230;-48
2022/09/13 02:31:26;;;;;;;5.10;4.60;;;16.00;99.90;;;;;;5051366;28;20195;-44
2022/09/13 02:33:58;;;;;;;5.30;4.80;;;16.00;99.90;;;;;;5055522;28;20250;-45
2022/09/13 02:36:29;;;;;;;5.73;5.10;;;15.90;99.90;;;;;;5038319;28;20895;-48
2022/09/13 02:38:59;;;;;;;5.30;4.80;;;15.90;99.90;;;;;;5041558;28;20184;-46
2022/09/13 02:41:34;;;;;;;5.60;5.20;;;15.90;99.90;;;;;;5047248;28;20200;-45
2022/09/13 02:44:07;;;;;;;6.03;5.40;;;15.90;99.90;;;;;;5040656;28;20214;-44
2022/09/13 02:46:56;;;;;;;6.13;5.50;;;15.90;99.90;;;;;;5053724;28;20194;-44
2022/09/13 02:49:30;;;;;;;6.37;5.73;;;15.90;99.90;;;;;;5059435;28;20218;-47
2022/09/13 02:52:06;;;;;;;9.67;6.37;;;16.00;99.90;;;;;;5038001;28;20228;-45
2022/09/13 02:54:39;;;;;;;7.17;5.30;;;16.00;99.90;;;;;;5048828;28;20570;-44
2022/09/13 02:57:13;;;;;;;5.57;5.10;;;16.00;99.90;;;;;;5062258;28;20178;-47
2022/09/13 02:59:40;;;;;;;6.33;5.73;;;16.00;99.90;;;;;;5063357;28;20797;-48
2022/09/13 03:02:10;;;;;;;5.97;5.37;;;16.00;99.90;;;;;;5042295;28;20191;-45
2022/09/13 03:04:38;;;;;;;6.70;6.00;;;16.00;99.90;;;;;;5045992;28;20695;-45
2022/09/13 03:07:09;;;;;;;7.20;6.10;;;16.00;99.90;;;;;;5036572;28;20204;-45
2022/09/13 03:09:37;;;;;;;6.97;5.97;;;16.00;99.90;;;;;;5046609;28;20214;-47
2022/09/13 03:12:33;;;;;;;6.83;5.50;;;16.00;99.90;;;;;;5058242;28;20252;-46
2022/09/13 03:15:11;;;;;;;7.07;6.33;;;16.00;99.90;;;;;;5041787;28;20196;-47
2022/09/13 03:17:49;;;;;;;6.53;5.73;;;16.00;99.90;;;;;;5065440;28;20191;-48
2022/09/13 03:20:25;;;;;;;6.90;6.30;;;16.00;99.90;;;;;;5057243;28;20194;-44
2022/09/13 03:23:11;;;;;;;6.77;6.03;;;16.00;99.90;;;;;;5038013;28;20218;-45
2022/09/13 03:25:52;;;;;;;7.13;6.20;;;15.90;99.90;;;;;;5044578;28;20203;-45
2022/09/13 03:28:28;;;;;;;8.17;5.83;;;15.90;99.90;;;;;;5036970;28;20210;-46
2022/09/13 03:31:03;;;;;;;6.87;6.17;;;15.90;99.90;;;;;;5047210;28;20183;-46
2022/09/13 03:33:38;;;;;;;7.07;5.63;;;15.90;99.90;;;;;;5054395;28;20214;-43
2022/09/13 03:36:14;;;;;;;6.93;6.23;;;15.90;99.90;;;;;;5047121;28;20214;-48
2022/09/13 03:38:47;;;;;;;10.20;7.30;;;15.90;99.90;;;;;;5042863;28;20203;-47
2022/09/13 03:41:18;;;;;;;10.37;8.47;;;15.90;99.90;;;;;;5044224;28;20191;-46
2022/09/13 03:43:49;;;;;;;8.97;7.87;;;16.00;99.90;;;;;;5042138;28;20311;-47
2022/09/13 03:46:25;;;;;;;9.73;7.93;;;16.00;99.90;;;;;;5055854;28;20190;-43
2022/09/13 03:48:52;;;;;;;9.73;7.23;;;16.00;99.90;;;;;;5061937;28;20205;-47
2022/09/13 03:51:20;;;;;;;9.43;7.70;;;16.00;99.90;;;;;;5046295;28;20319;-48
2022/09/13 03:53:52;;;;;;;8.90;6.80;;;16.00;99.90;;;;;;5052610;28;20215;-47
2022/09/13 03:56:20;;;;;;;8.37;7.00;;;16.00;99.90;;;;;;5041775;28;20210;-45
2022/09/13 03:58:48;;;;;;;7.90;7.10;;;16.00;99.90;;;;;;5042164;28;20552;-44
2022/09/13 04:01:19;;;;;;;9.40;7.43;;;16.00;99.90;;;;;;5039136;28;20226;-49
2022/09/13 04:03:47;;;;;;;11.50;8.93;;;16.00;99.90;;;;;;5038497;28;20219;-44
2022/09/13 04:06:14;;;;;;;9.00;8.20;;;16.10;99.90;;;;;;5051128;28;20209;-49
2022/09/13 04:08:43;;;;;;;10.47;8.90;;;16.10;99.90;;;;;;5053403;28;20420;-49
2022/09/13 04:11:10;;;;;;;14.07;8.90;;;16.10;99.90;;;;;;5031474;28;20207;-43
2022/09/13 04:13:38;;;;;;;11.43;10.23;;;16.10;99.90;;;;;;5049967;28;20214;-44
2022/09/13 04:16:06;;;;;;;11.17;9.37;;;16.00;99.90;;;;;;5053861;28;20642;-46
2022/09/13 04:18:34;;;;;;;12.83;10.53;;;16.10;99.90;;;;;;5058998;28;20244;-46
2022/09/13 04:21:03;;;;;;;12.43;10.23;;;16.00;99.90;;;;;;5054702;28;20195;-44
2022/09/13 04:23:31;;;;;;;13.47;11.20;;;16.00;99.90;;;;;;5039586;28;21493;-44
2022/09/13 04:26:03;;;;;;;17.67;11.80;;;16.00;99.90;;;;;;5035312;28;20207;-43
2022/09/13 04:28:30;;;;;;;15.77;12.73;;;16.00;99.90;;;;;;5046913;28;20190;-43
2022/09/13 04:30:57;;;;;;;17.67;13.73;;;15.90;99.90;;;;;;5056508;28;20260;-47
2022/09/13 04:33:24;;;;;;;15.10;11.90;;;15.90;99.90;;;;;;5039493;28;20219;-49
2022/09/13 04:35:57;;;;;;;17.17;13.50;;;15.90;99.90;;;;;;5044090;28;20201;-44
2022/09/13 04:38:24;;;;;;;20.60;15.63;;;15.90;99.90;;;;;;5040567;28;20198;-45
2022/09/13 04:40:54;;;;;;;18.47;13.53;;;15.90;99.90;;;;;;5028658;28;20731;-44
2022/09/13 04:43:23;;;;;;;18.87;15.07;;;15.90;99.90;;;;;;5041442;28;20860;-44
2022/09/13 04:45:50;;;;;;;20.03;14.67;;;15.90;99.90;;;;;;5049985;28;20199;-45
2022/09/13 04:48:18;;;;;;;18.10;14.63;;;15.90;99.90;;;;;;5039979;28;20848;-49
2022/09/13 04:50:44;;;;;;;20.27;15.37;;;15.80;99.90;;;;;;5041411;28;20954;-44
2022/09/13 04:53:11;;;;;;;22.37;15.20;;;15.80;99.90;;;;;;5039675;28;20191;-46
2022/09/13 04:55:38;;;;;;;22.73;15.73;;;15.80;99.90;;;;;;5033689;28;20206;-47
2022/09/13 04:58:05;;;;;;;22.30;16.63;;;15.80;99.90;;;;;;5046714;28;20199;-45
2022/09/13 05:00:33;;;;;;;22.70;16.30;;;15.80;99.90;;;;;;5055513;28;20211;-45
2022/09/13 05:03:00;;;;;;;23.03;16.87;;;15.80;99.90;;;;;;5045170;28;20229;-44
2022/09/13 05:05:27;;;;;;;24.37;16.90;;;15.80;99.90;;;;;;5030753;28;20212;-44
2022/09/13 05:07:55;;;;;;;23.70;16.57;;;15.80;99.90;;;;;;5047475;28;20196;-44
2022/09/13 05:10:22;;;;;;;28.50;17.73;;;15.80;99.90;;;;;;5032850;28;20809;-44
2022/09/13 05:12:48;;;;;;;26.80;18.53;;;15.80;99.90;;;;;;5034387;28;20281;-44
2022/09/13 05:15:16;;;;;;;28.37;18.53;;;15.80;99.90;;;;;;5046488;28;20207;-46
2022/09/13 05:17:44;;;;;;;28.43;19.30;;;15.80;99.90;;;;;;5050216;28;20449;-45
2022/09/13 05:20:11;;;;;;;30.20;20.60;;;15.90;99.90;;;;;;5057150;28;20195;-48
2022/09/13 05:22:38;;;;;;;27.50;18.97;;;15.80;99.90;;;;;;5053536;28;20217;-46
2022/09/13 05:25:06;;;;;;;26.13;19.17;;;15.90;99.90;;;;;;5043932;28;20226;-44
2022/09/13 05:27:33;;;;;;;24.00;18.80;;;15.90;99.90;;;;;;5029013;28;20215;-44
2022/09/13 05:30:00;;;;;;;30.17;19.33;;;15.90;99.90;;;;;;5047570;28;20218;-47
2022/09/13 05:32:27;;;;;;;28.73;19.07;;;15.90;99.90;;;;;;5052543;28;20182;-44
2022/09/13 05:34:55;;;;;;;25.43;18.90;;;15.90;99.90;;;;;;5047108;28;20297;-44
2022/09/13 05:37:21;;;;;;;29.90;20.47;;;15.90;99.90;;;;;;5044106;28;20663;-46
2022/09/13 05:39:48;;;;;;;24.53;18.57;;;15.90;99.90;;;;;;5050824;28;20191;-44
2022/09/13 05:42:15;;;;;;;24.93;18.67;;;15.90;99.90;;;;;;5049958;28;20214;-46
2022/09/13 05:44:42;;;;;;;27.33;19.13;;;16.00;99.90;;;;;;5036000;28;20229;-44
2022/09/13 05:47:08;;;;;;;29.63;19.50;;;16.00;99.90;;;;;;5046458;28;20206;-46
2022/09/13 05:49:35;;;;;;;22.73;18.00;;;16.00;99.90;;;;;;5051274;28;20242;-44
2022/09/13 05:52:04;;;;;;;26.37;19.23;;;16.00;99.90;;;;;;5063963;28;20596;-47
2022/09/13 05:54:31;;;;;;;29.43;20.17;;;16.00;99.90;;;;;;5039014;28;20314;-43
2022/09/13 05:56:59;;;;;;;29.07;19.13;;;16.00;99.90;;;;;;5060989;28;20198;-43
2022/09/13 05:59:25;;;;;;;28.00;19.37;;;16.00;99.90;;;;;;5035235;28;20199;-46
2022/09/13 06:01:52;;;;;;;32.27;19.33;;;16.10;99.90;;;;;;5050813;28;20527;-46
2022/09/13 06:04:18;;;;;;;25.63;18.77;;;16.20;99.90;;;;;;5050812;28;20229;-44
2022/09/13 06:06:45;;;;;;;26.73;18.90;;;16.20;99.90;;;;;;5056100;28;20199;-47
2022/09/13 06:09:13;;;;;;;23.93;17.33;;;16.20;99.90;;;;;;5047129;28;20202;-49
2022/09/13 06:11:40;;;;;;;23.77;16.00;;;16.20;99.90;;;;;;5037982;28;20207;-46
2022/09/13 06:14:07;;;;;;;26.17;17.20;;;16.20;99.90;;;;;;5044669;28;20219;-46
2022/09/13 06:16:35;;;;;;;24.27;16.97;;;16.30;99.90;;;;;;5032196;28;20199;-45
2022/09/13 06:19:04;;;;;;;25.03;17.03;;;16.30;99.90;;;;;;5045646;28;20286;-46
2022/09/13 06:21:31;;;;;;;24.37;16.63;;;16.30;99.90;;;;;;5041047;28;20198;-48
2022/09/13 06:23:58;;;;;;;25.70;17.17;;;16.30;99.90;;;;;;5045135;28;20290;-47
2022/09/13 06:26:27;;;;;;;21.93;17.07;;;16.30;99.90;;;;;;5038189;28;20210;-47
2022/09/13 06:28:56;;;;;;;19.50;15.90;;;16.40;99.90;;;;;;5046302;28;20195;-46
2022/09/13 06:31:25;;;;;;;23.30;16.23;;;16.40;99.90;;;;;;5029763;28;20255;-49
2022/09/13 06:33:57;;;;;;;23.13;15.17;;;16.40;99.90;;;;;;5044835;28;20219;-44
2022/09/13 06:36:25;;;;;;;23.23;15.73;;;16.40;99.90;;;;;;5041948;28;20198;-46
2022/09/13 06:38:51;;;;;;;22.27;15.30;;;16.40;99.90;;;;;;5044872;28;20200;-44
2022/09/13 06:41:20;;;;;;;22.67;15.90;;;16.40;99.90;;;;;;5041018;28;20278;-48
2022/09/13 06:43:53;;;;;;;20.17;14.97;;;16.50;99.90;;;;;;5043637;28;20229;-44
2022/09/13 06:46:20;;;;;;;22.13;15.20;;;16.50;99.90;;;;;;5033672;28;20225;-49
2022/09/13 06:48:48;;;;;;;18.93;14.43;;;16.60;99.90;;;;;;5042804;28;20650;-44
2022/09/13 06:51:16;;;;;;;20.30;14.30;;;16.70;99.90;;;;;;5043775;28;20736;-48
2022/09/13 06:53:45;;;;;;;19.80;15.17;;;16.70;99.90;;;;;;5042910;28;20208;-44
2022/09/13 06:56:13;;;;;;;22.30;15.17;;;16.80;99.90;;;;;;5043276;28;20633;-44
2022/09/13 06:58:42;;;;;;;21.27;14.77;;;16.80;99.90;;;;;;5053522;28;20202;-44
2022/09/13 07:01:13;;;;;;;19.97;13.80;;;16.90;99.90;;;;;;5041030;28;20302;-44
2022/09/13 07:03:41;;;;;;;18.40;13.40;;;16.90;99.90;;;;;;5027575;28;20230;-47
2022/09/13 07:06:10;;;;;;;17.83;13.03;;;17.00;99.90;;;;;;5044951;28;20206;-48
2022/09/13 07:08:38;;;;;;;19.00;12.60;;;17.00;99.90;;;;;;5046435;28;20202;-49
2022/09/13 07:11:05;;;;;;;17.80;12.57;;;17.10;99.90;;;;;;5044003;28;20238;-46
2022/09/13 07:13:32;;;;;;;23.17;12.33;;;17.20;99.90;;;;;;5046022;28;20316;-45
2022/09/13 07:16:01;;;;;;;22.00;12.83;;;17.20;99.90;;;;;;5044473;28;20656;-44
2022/09/13 07:18:29;;;;;;;20.17;11.87;;;17.20;99.90;;;;;;5030309;28;20199;-47
2022/09/13 07:21:00;;;;;;;18.40;12.07;;;17.20;99.90;;;;;;5035453;28;20896;-44
2022/09/13 07:23:27;;;;;;;17.13;11.77;;;17.20;99.90;;;;;;5062663;28;20800;-44
2022/09/13 07:25:54;;;;;;;15.53;10.20;;;17.20;99.90;;;;;;5042560;28;20202;-45
2022/09/13 07:28:21;;;;;;;17.73;9.93;;;17.30;99.90;;;;;;5040113;28;20195;-44
2022/09/13 07:30:49;;;;;;;14.47;9.33;;;17.20;99.90;;;;;;5051141;28;20218;-45
2022/09/13 07:33:15;;;;;;;15.03;9.37;;;17.20;99.90;;;;;;5029591;28;20227;-44
2022/09/13 07:35:43;;;;;;;13.50;8.57;;;17.20;99.90;;;;;;5042449;28;20274;-44
2022/09/13 07:38:10;;;;;;;11.60;8.47;;;17.20;99.90;;;;;;5038903;28;20195;-46
2022/09/13 07:40:37;;;;;;;11.13;8.40;;;17.20;99.90;;;;;;5043332;28;20695;-46
2022/09/13 07:43:04;;;;;;;15.63;8.77;;;17.30;99.90;;;;;;5035162;28;20990;-45
2022/09/13 07:45:31;;;;;;;11.70;7.83;;;17.30;99.90;;;;;;5042375;28;20328;-43
2022/09/13 07:47:57;;;;;;;13.10;7.87;;;17.40;99.90;;;;;;5040501;28;20187;-44
2022/09/13 07:50:24;;;;;;;12.43;8.03;;;17.40;99.90;;;;;;5035022;28;20223;-44
2022/09/13 07:52:53;;;;;;;14.90;7.87;;;17.40;99.90;;;;;;5040770;28;20553;-45
2022/09/13 07:55:20;;;;;;;10.27;7.23;;;17.40;99.90;;;;;;5054844;28;20215;-44
2022/09/13 07:57:46;;;;;;;9.47;6.67;;;17.50;99.90;;;;;;5041460;28;20195;-46
2022/09/13 08:00:15;;;;;;;10.57;6.60;;;17.50;99.90;;;;;;5060645;28;20466;-44
2022/09/13 08:02:42;;;;;;;12.30;5.70;;;17.60;99.90;;;;;;5049439;28;20241;-49
2022/09/13 08:05:08;;;;;;;6.37;5.53;;;17.60;99.90;;;;;;5031554;28;20219;-46
2022/09/13 08:07:35;;;;;;;11.20;5.27;;;17.70;99.90;;;;;;5043176;28;20203;-48
2022/09/13 08:10:04;;;;;;;13.03;6.07;;;17.70;99.90;;;;;;5045350;28;20210;-47
2022/09/13 08:12:30;;;;;;;11.40;4.70;;;17.80;99.90;;;;;;5043884;28;20207;-46
2022/09/13 08:14:57;;;;;;;10.77;4.20;;;18.00;99.90;;;;;;5050559;28;20219;-44
2022/09/13 08:17:24;;;;;;;6.27;3.17;;;18.10;99.90;;;;;;5046364;28;20226;-44
2022/09/13 08:19:50;;;;;;;6.77;2.60;;;18.20;99.90;;;;;;5046492;28;20540;-48
2022/09/13 08:22:17;;;;;;;6.23;2.43;;;18.30;99.90;;;;;;5029397;28;20222;-47
2022/09/13 08:24:43;;;;;;;7.87;1.93;;;18.30;99.90;;;;;;5041621;28;20241;-46
2022/09/13 08:27:12;;;;;;;4.73;2.00;;;18.30;99.90;;;;;;5054013;28;20187;-47
2022/09/13 08:29:40;;;;;;;5.23;1.30;;;18.30;99.90;;;;;;5037328;28;20265;-45
2022/09/13 08:32:07;;;;;;;7.83;1.10;;;18.20;99.90;;;;;;5049602;28;20222;-45
2022/09/13 08:34:33;;;;;;;2.90;0.80;;;18.10;99.90;;;;;;5058546;28;20218;-46
2022/09/13 08:37:00;;;;;;;4.03;1.20;;;18.00;99.90;;;;;;5025259;28;20256;-49
2022/09/13 08:39:26;;;;;;;3.33;0.83;;;18.00;99.90;;;;;;5046008;28;20274;-46
2022/09/13 08:42:08;;;;;;;3.03;1.07;;;18.00;99.90;;;;;;5047339;28;20205;-46
2022/09/13 08:44:41;;;;;;;3.33;0.70;;;17.90;99.90;;;;;;5044433;28;20249;-44
2022/09/13 08:47:24;;;;;;;3.27;1.10;;;17.90;99.90;;;;;;5053295;28;20807;-45
2022/09/13 08:50:00;;;;;;;4.70;1.43;;;18.00;99.90;;;;;;5034027;28;20660;-50
2022/09/13 08:52:30;;;;;;;3.97;1.00;;;18.10;99.90;;;;;;5038830;28;20206;-47
2022/09/13 08:54:58;;;;;;;4.17;1.43;;;18.10;99.90;;;;;;5036892;28;20214;-49
2022/09/13 08:57:31;;;;;;;2.00;0.70;;;18.20;99.90;;;;;;5051114;28;20209;-44
2022/09/13 09:00:06;;;;;;;1.90;0.93;;;18.20;99.90;;;;;;5051234;28;20206;-46
2022/09/13 09:02:53;;;;;;;2.50;0.80;;;18.40;99.90;;;;;;5038880;28;20279;-44
2022/09/13 09:05:22;;;;;;;3.17;1.30;;;18.50;99.90;;;;;;5053491;28;20708;-45
2022/09/13 09:07:52;;;;;;;3.00;1.30;;;18.50;99.90;;;;;;5035009;28;20248;-44
2022/09/13 09:10:21;;;;;;;5.77;1.03;;;18.60;99.90;;;;;;5041900;28;20226;-44
2022/09/13 09:12:52;;;;;;;8.93;1.00;;;18.70;99.90;;;;;;5051539;28;20213;-44
2022/09/13 09:15:23;;;;;;;5.03;0.80;;;18.70;99.90;;;;;;5052860;28;20348;-44
2022/09/13 09:17:56;;;;;;;3.80;0.60;;;18.80;99.90;;;;;;5056556;28;20195;-45
2022/09/13 09:20:30;;;;;;;2.77;0.50;;;18.80;99.90;;;;;;5056370;28;20678;-45
2022/09/13 09:23:02;;;;;;;3.03;0.80;;;18.80;99.90;;;;;;5029354;28;20211;-45
2022/09/13 09:25:29;;;;;;;1.87;0.63;;;18.80;99.90;;;;;;5046932;28;20222;-46
2022/09/13 09:27:58;;;;;;;4.03;0.93;;;18.80;99.90;;;;;;5041293;28;20195;-45
2022/09/13 09:30:41;;;;;;;3.37;0.60;;;18.80;99.90;;;;;;5051305;28;20215;-45
2022/09/13 09:33:26;;;;;;;2.57;0.60;;;18.80;99.90;;;;;;5051124;28;20206;-45
2022/09/13 09:36:01;;;;;;;2.43;0.60;;;18.80;99.90;;;;;;5047251;28;20257;-48
2022/09/13 09:38:40;;;;;;;3.80;1.00;;;18.90;99.90;;;;;;5051161;28;20289;-45
2022/09/13 09:41:15;;;;;;;8.37;1.00;;;18.90;99.90;;;;;;5042268;28;20183;-47
2022/09/13 09:43:48;;;;;;;5.13;0.73;;;19.10;99.90;;;;;;5038983;28;20229;-46
2022/09/13 09:46:20;;;;;;;2.37;0.90;;;19.20;99.90;;;;;;5051612;28;20207;-45
2022/09/13 09:48:53;;;;;;;5.97;0.97;;;19.40;99.90;;;;;;5053895;28;20202;-46
2022/09/13 09:51:22;;;;;;;4.60;1.10;;;19.40;99.90;;;;;;5051288;28;20263;-44
2022/09/13 09:53:53;;;;;;;3.50;0.70;;;19.50;99.90;;;;;;5044696;28;20242;-45
2022/09/13 09:56:23;;;;;;;7.03;1.17;;;19.60;99.90;;;;;;5032490;28;20700;-46
2022/09/13 09:58:52;;;;;;;6.63;0.83;;;19.60;99.90;;;;;;5038520;28;20207;-48
2022/09/13 10:01:31;;;;;;;1.53;0.80;;;19.80;99.90;;;;;;5046037;28;20199;-44
2022/09/13 10:04:07;;;;;;;2.90;0.70;;;19.80;99.90;;;;;;5048220;28;20214;-44
2022/09/13 10:06:35;;;;;;;4.30;0.70;;;19.80;99.90;;;;;;5050268;28;20202;-48
2022/09/13 10:09:05;;;;;;;4.57;0.73;;;19.90;99.90;;;;;;5049216;28;20187;-44
2022/09/13 10:11:44;;;;;;;4.50;0.73;;;19.90;99.90;;;;;;5035208;28;20258;-45
2022/09/13 10:14:36;;;;;;;3.33;1.03;;;19.80;99.90;;;;;;5039928;28;20226;-44
2022/09/13 10:17:21;;;;;;;4.50;1.10;;;19.80;99.90;;;;;;5045333;28;20299;-49
2022/09/13 10:19:53;;;;;;;4.20;0.90;;;19.70;99.90;;;;;;5037627;28;20207;-49
2022/09/13 10:22:21;;;;;;;1.40;0.70;;;19.60;99.90;;;;;;5044304;28;20207;-46
2022/09/13 10:24:49;;;;;;;2.57;0.87;;;19.50;99.90;;;;;;5030871;28;20235;-50
2022/09/13 10:27:21;;;;;;;3.90;1.10;;;19.50;99.90;;;;;;5040645;28;20239;-44
2022/09/13 10:29:50;;;;;;;2.20;0.80;;;19.50;99.90;;;;;;5036978;28;20202;-48
2022/09/13 10:32:18;;;;;;;3.50;0.90;;;19.60;99.90;;;;;;5053756;28;20214;-44
2022/09/13 10:34:48;;;;;;;1.77;0.90;;;19.60;99.90;;;;;;5054047;28;20227;-50
2022/09/13 10:37:20;;;;;;;4.40;0.80;;;19.80;99.90;;;;;;5056602;28;20205;-47
2022/09/13 10:39:55;;;;;;;5.40;1.00;;;19.80;99.90;;;;;;5040970;28;20207;-46
2022/09/13 10:42:25;;;;;;;4.07;0.73;;;19.80;99.90;;;;;;5028872;28;20207;-46
2022/09/13 10:44:55;;;;;;;2.90;0.70;;;19.80;99.90;;;;;;5043980;28;20286;-48
2022/09/13 10:47:27;;;;;;;4.40;1.50;;;19.90;99.90;;;;;;5057299;28;20210;-49
2022/09/13 10:49:56;;;;;;;4.73;1.00;;;20.00;99.90;;;;;;5050893;28;20211;-45
2022/09/13 10:52:32;;;;;;;4.53;0.90;;;20.20;99.90;;;;;;5040954;28;20222;-47
2022/09/13 10:55:25;;;;;;;4.83;1.10;;;20.30;99.90;;;;;;5045215;28;20950;-49
2022/09/13 10:57:53;;;;;;;5.23;1.30;;;20.20;99.90;;;;;;5029362;28;20807;-49
2022/09/13 11:00:23;;;;;;;5.40;0.90;;;20.20;99.90;;;;;;5052426;28;20246;-45
2022/09/13 11:03:07;;;;;;;4.70;1.13;;;20.20;99.90;;;;;;5036689;28;20196;-49
2022/09/13 11:05:40;;;;;;;3.23;1.00;;;20.10;99.90;;;;;;5052597;28;20297;-46
2022/09/13 11:08:18;;;;;;;3.27;0.93;;;20.10;99.90;;;;;;5056404;28;20210;-44
2022/09/13 11:10:55;;;;;;;4.30;0.77;;;20.10;99.90;;;;;;5048942;28;20187;-46
2022/09/13 11:13:31;;;;;;;2.93;0.97;;;20.20;99.90;;;;;;5038589;28;20234;-46
2022/09/13 11:16:05;;;;;;;4.90;1.33;;;20.30;99.90;;;;;;5043794;28;20183;-46
2022/09/13 11:18:50;;;;;;;7.17;1.40;;;20.40;99.90;;;;;;5054095;28;20202;-45
2022/09/13 11:21:27;;;;;;;2.53;0.70;;;20.40;99.90;;;;;;5041716;28;20282;-44
2022/09/13 11:24:29;;;;;;;5.13;1.13;;;20.30;99.90;;;;;;5044628;28;20921;-47
2022/09/13 11:27:03;;;;;;;5.90;1.13;;;20.10;99.70;;;;;;5025715;28;20199;-45
2022/09/13 11:29:46;;;;;;;3.17;1.03;;;20.00;99.90;;;;;;5025964;28;20707;-45
2022/09/13 11:32:24;;;;;;;4.03;1.00;;;19.90;99.90;;;;;;5047231;28;20240;-45
2022/09/13 11:35:09;;;;;;;2.63;0.90;;;19.90;99.90;;;;;;5038832;28;20218;-44
2022/09/13 11:37:49;;;;;;;5.00;0.90;;;19.90;99.90;;;;;;5039595;28;20190;-46
2022/09/13 11:40:31;;;;;;;3.80;0.67;;;19.90;99.90;;;;;;5036200;28;20882;-45
2022/09/13 11:43:13;;;;;;;2.30;0.83;;;19.90;99.90;;;;;;5046908;28;20261;-45
2022/09/13 11:45:44;;;;;;;2.40;0.70;;;19.90;99.90;;;;;;5036272;28;20672;-45
2022/09/13 11:48:36;;;;;;;6.00;0.70;;;19.80;99.90;;;;;;5046192;28;20264;-45
2022/09/13 11:51:14;;;;;;;3.53;0.90;;;19.80;99.90;;;;;;5048200;28;20222;-45
2022/09/13 11:54:04;;;;;;;3.27;0.90;;;19.80;99.90;;;;;;5044815;28;20222;-46
2022/09/13 11:56:35;;;;;;;3.47;0.80;;;19.90;99.90;;;;;;5043332;28;20600;-45
2022/09/13 11:59:14;;;;;;;2.83;1.10;;;19.80;99.90;;;;;;5046154;28;20194;-49
2022/09/13 12:01:45;;;;;;;4.83;1.00;;;19.80;99.90;;;;;;5027556;28;20234;-44
2022/09/13 12:04:17;;;;;;;4.10;1.10;;;19.80;99.90;;;;;;5043116;28;20222;-45
2022/09/13 12:06:50;;;;;;;3.23;0.77;;;19.70;99.90;;;;;;5053878;28;20195;-44
2022/09/13 12:09:20;;;;;;;5.03;1.10;;;19.60;99.90;;;;;;5044096;28;20206;-46
2022/09/13 12:11:54;;;;;;;3.37;0.90;;;19.60;99.90;;;;;;5048818;28;20207;-46
2022/09/13 12:14:23;;;;;;;2.63;0.83;;;19.70;99.90;;;;;;5042212;28;20230;-47
2022/09/13 12:16:54;;;;;;;2.60;0.93;;;19.80;99.90;;;;;;5025885;28;20207;-44
2022/09/13 12:19:25;;;;;;;4.43;1.10;;;19.90;99.90;;;;;;5038879;28;20559;-45
2022/09/13 12:21:54;;;;;;;6.20;0.87;;;20.10;99.90;;;;;;5040044;28;20209;-45
2022/09/13 12:24:28;;;;;;;3.90;0.87;;;20.10;99.90;;;;;;5042413;28;20302;-48
2022/09/13 12:26:58;;;;;;;6.30;1.27;;;20.10;99.90;;;;;;5043572;28;20310;-45
2022/09/13 12:29:30;;;;;;;9.10;1.30;;;19.90;99.90;;;;;;5041707;28;20199;-47
2022/09/13 12:32:00;;;;;;;8.13;1.07;;;19.80;99.90;;;;;;5027403;28;20281;-44
2022/09/13 12:34:33;;;;;;;4.27;0.77;;;19.90;99.90;;;;;;5039126;28;20226;-46
2022/09/13 12:37:21;;;;;;;3.97;1.00;;;20.00;99.90;;;;;;5038861;28;20926;-45
2022/09/13 12:40:27;;;;;;;6.83;1.20;;;20.20;99.90;;;;;;5034825;28;20214;-44
2022/09/13 12:43:24;;;;;;;7.93;1.20;;;20.40;99.90;;;;;;5044468;28;20190;-46
2022/09/13 12:46:12;;;;;;;3.30;0.90;;;20.20;98.70;;;;;;5037222;28;20191;-46
2022/09/13 12:49:18;;;;;;;4.63;0.97;;;20.00;99.20;;;;;;5016066;28;20226;-46
2022/09/13 12:52:16;;;;;;;5.67;1.67;;;19.90;98.60;;;;;;5030008;28;20266;-44
2022/09/13 12:55:17;;;;;;;2.90;0.77;;;19.80;99.70;;;;;;5025591;28;20275;-44
2022/09/13 12:57:52;;;;;;;3.03;0.90;;;19.80;99.80;;;;;;5033473;28;20293;-46
2022/09/13 13:00:21;;;;;;;4.90;0.90;;;19.80;99.90;;;;;;5050112;28;20200;-44
2022/09/13 13:03:01;;;;;;;2.33;0.53;;;20.00;99.90;;;;;;5045428;28;20203;-45
2022/09/13 13:05:33;;;;;;;3.20;0.50;;;20.10;99.60;;;;;;5032786;28;20233;-44